createdAt,value
2019-02-23T00:00:12.580Z,17.00
2019-02-23T00:02:40.954Z,13.57
2019-02-23T00:05:09.734Z,25.77
2019-02-23T00:07:38.500Z,25.47
2019-02-23T00:10:08.448Z,15.70
2019-02-23T00:12:37.221Z,21.00
2019-02-23T00:15:06.859Z,25.13
2019-02-23T00:17:35.624Z,15.33
2019-02-23T00:20:06.460Z,26.13
2019-02-23T00:22:35.282Z,31.37
2019-02-23T00:25:04.050Z,27.97
2019-02-23T00:27:32.826Z,18.20
2019-02-23T00:30:01.700Z,31.13
2019-02-23T00:32:30.448Z,17.03
2019-02-23T00:34:59.203Z,16.30
2019-02-23T00:37:28.072Z,26.50
2019-02-23T00:39:56.825Z,21.30
2019-02-23T00:42:25.657Z,18.17
2019-02-23T00:44:54.506Z,20.07
2019-02-23T00:47:23.344Z,29.30
2019-02-23T00:49:52.211Z,22.00
2019-02-23T00:52:20.973Z,28.23
2019-02-23T00:54:49.744Z,18.53
2019-02-23T00:57:18.518Z,22.30
2019-02-23T00:59:47.370Z,17.07
2019-02-23T01:02:16.270Z,17.60
2019-02-23T01:04:45.100Z,20.57
2019-02-23T01:07:13.953Z,14.97
2019-02-23T01:09:42.742Z,23.50
2019-02-23T01:12:11.493Z,18.33
2019-02-23T01:14:40.312Z,21.50
2019-02-23T01:17:09.144Z,17.50
2019-02-23T01:19:47.305Z,16.27
2019-02-23T01:22:08.588Z,18.13
2019-02-23T01:24:37.359Z,17.83
2019-02-23T01:27:06.195Z,16.77
2019-02-23T01:29:35.071Z,15.43
2019-02-23T01:32:03.916Z,28.90
2019-02-23T01:34:32.775Z,16.77
2019-02-23T01:37:01.899Z,18.30
2019-02-23T01:39:30.662Z,23.30
2019-02-23T01:41:59.431Z,20.53
2019-02-23T01:44:28.200Z,20.30
2019-02-23T01:46:56.960Z,22.60
2019-02-23T01:49:26.071Z,23.27
2019-02-23T01:51:54.832Z,16.20
2019-02-23T01:54:23.593Z,16.10
2019-02-23T01:56:52.416Z,11.53
2019-02-23T01:59:21.245Z,14.27
2019-02-23T02:01:50.094Z,12.17
2019-02-23T02:04:18.989Z,13.00
2019-02-23T02:06:47.834Z,12.37
2019-02-23T02:09:16.688Z,11.90
2019-02-23T02:11:45.571Z,10.47
2019-02-23T02:14:14.333Z,9.57
2019-02-23T02:16:43.172Z,8.30
2019-02-23T02:19:11.959Z,6.43
2019-02-23T02:21:40.839Z,9.90
2019-02-23T02:24:09.666Z,8.90
2019-02-23T02:26:38.428Z,8.47
2019-02-23T02:29:07.209Z,13.27
2019-02-23T02:31:36.042Z,10.20
2019-02-23T02:34:09.911Z,7.03
2019-02-23T02:36:38.691Z,6.43
2019-02-23T02:39:12.111Z,7.60
2019-02-23T02:41:41.010Z,9.90
2019-02-23T02:44:09.851Z,7.90
2019-02-23T02:46:38.777Z,8.40
2019-02-23T02:49:07.943Z,8.73
2019-02-23T02:51:36.692Z,6.57
2019-02-23T02:54:05.453Z,7.97
2019-02-23T02:56:34.456Z,9.40
2019-02-23T02:59:03.218Z,10.77
2019-02-23T03:01:32.039Z,13.07
2019-02-23T03:04:00.901Z,13.30
2019-02-23T03:06:29.641Z,11.37
2019-02-23T03:08:58.903Z,10.73
2019-02-23T03:11:27.653Z,9.53
2019-02-23T03:13:56.485Z,9.07
2019-02-23T03:16:25.330Z,10.40
2019-02-23T03:18:54.177Z,11.67
2019-02-23T03:21:22.945Z,11.50
2019-02-23T03:23:51.709Z,14.23
2019-02-23T03:26:20.491Z,13.37
2019-02-23T03:28:49.329Z,11.73
2019-02-23T03:31:18.181Z,12.93
2019-02-23T03:33:47.154Z,12.43
2019-02-23T03:36:15.918Z,13.87
2019-02-23T03:38:44.742Z,12.23
2019-02-23T03:41:13.585Z,11.70
2019-02-23T03:43:42.359Z,11.83
2019-02-23T03:46:11.220Z,11.13
2019-02-23T03:48:40.062Z,12.17
2019-02-23T03:51:08.814Z,11.87
2019-02-23T03:53:37.587Z,10.87
2019-02-23T03:56:06.350Z,10.70
2019-02-23T03:58:35.123Z,10.03
2019-02-23T04:01:03.908Z,11.03
2019-02-23T04:03:32.645Z,8.97
2019-02-23T04:06:01.419Z,8.83
2019-02-23T04:08:30.202Z,10.43
2019-02-23T04:10:59.042Z,11.37
2019-02-23T04:13:27.806Z,8.63
2019-02-23T04:15:56.575Z,8.67
2019-02-23T04:18:25.339Z,11.37
2019-02-23T04:21:01.930Z,11.97
2019-02-23T04:23:24.621Z,13.77
2019-02-23T04:25:53.416Z,12.93
2019-02-23T04:28:22.250Z,13.13
2019-02-23T04:30:51.096Z,11.63
2019-02-23T04:33:19.932Z,11.53
2019-02-23T04:35:48.753Z,14.07
2019-02-23T04:38:17.511Z,15.23
2019-02-23T04:40:46.352Z,11.77
2019-02-23T04:43:15.192Z,10.90
2019-02-23T04:45:44.020Z,15.33
2019-02-23T04:48:12.867Z,21.43
2019-02-23T04:50:41.721Z,12.00
2019-02-23T04:53:10.483Z,16.57
2019-02-23T04:55:39.256Z,27.97
2019-02-23T04:58:08.037Z,12.67
2019-02-23T05:00:36.808Z,9.07
2019-02-23T05:03:05.642Z,12.03
2019-02-23T05:05:34.503Z,9.27
2019-02-23T05:08:03.216Z,11.03
2019-02-23T05:10:32.055Z,12.73
2019-02-23T05:13:00.882Z,8.63
2019-02-23T05:15:29.640Z,9.60
2019-02-23T05:17:58.409Z,9.40
2019-02-23T05:20:27.178Z,12.53
2019-02-23T05:22:56.033Z,19.57
2019-02-23T05:25:24.876Z,20.87
2019-02-23T05:27:53.639Z,17.80
2019-02-23T05:30:22.434Z,21.50
2019-02-23T05:32:51.191Z,16.30
2019-02-23T05:35:20.025Z,15.87
2019-02-23T05:37:48.804Z,13.20
2019-02-23T05:40:17.587Z,12.20
2019-02-23T05:42:46.358Z,16.27
2019-02-23T05:45:15.115Z,19.03
2019-02-23T05:47:43.918Z,12.07
2019-02-23T05:50:12.685Z,16.93
2019-02-23T05:52:41.480Z,25.67
2019-02-23T05:55:10.240Z,14.20
2019-02-23T05:57:39.098Z,15.17
2019-02-23T06:00:13.106Z,19.67
2019-02-23T06:02:44.804Z,15.27
2019-02-23T06:05:12.440Z,11.87
2019-02-23T06:07:41.271Z,12.90
2019-02-23T06:10:10.638Z,12.40
2019-02-23T06:12:39.558Z,11.73
2019-02-23T06:15:11.337Z,12.47
2019-02-23T06:17:40.134Z,14.07
2019-02-23T06:20:09.598Z,18.17
2019-02-23T06:22:38.363Z,23.13
2019-02-23T06:25:08.721Z,26.57
2019-02-23T06:27:37.488Z,23.70
2019-02-23T06:30:09.324Z,31.13
2019-02-23T06:32:38.102Z,39.73
2019-02-23T06:35:09.193Z,49.33
2019-02-23T06:37:37.965Z,42.60
2019-02-23T06:40:11.433Z,35.93
2019-02-23T06:42:40.607Z,34.17
2019-02-23T06:45:13.763Z,31.60
2019-02-23T06:47:42.540Z,18.13
2019-02-23T06:50:11.420Z,18.00
2019-02-23T06:52:40.200Z,13.13
2019-02-23T06:55:09.083Z,13.80
2019-02-23T06:57:37.857Z,15.40
2019-02-23T07:00:12.600Z,9.20
2019-02-23T07:02:41.439Z,12.30
2019-02-23T07:05:10.230Z,13.53
2019-02-23T07:07:39.008Z,12.80
2019-02-23T07:10:12.558Z,11.67
2019-02-23T07:12:41.414Z,12.23
2019-02-23T07:15:11.175Z,19.47
2019-02-23T07:17:40.039Z,10.83
2019-02-23T07:20:10.327Z,10.37
2019-02-23T07:22:39.100Z,10.70
2019-02-23T07:25:09.448Z,9.57
2019-02-23T07:27:38.227Z,7.30
2019-02-23T07:30:09.916Z,10.30
2019-02-23T07:32:38.688Z,13.60
2019-02-23T07:35:07.942Z,17.77
2019-02-23T07:37:36.783Z,12.07
2019-02-23T07:40:08.691Z,12.67
2019-02-23T07:42:37.474Z,13.60
2019-02-23T07:45:08.216Z,11.23
2019-02-23T07:47:37.056Z,8.80
2019-02-23T07:50:08.665Z,14.63
2019-02-23T07:52:37.730Z,16.23
2019-02-23T07:55:07.054Z,13.47
2019-02-23T07:57:35.819Z,14.30
2019-02-23T08:00:06.282Z,15.03
2019-02-23T08:02:35.078Z,18.00
2019-02-23T08:05:04.294Z,12.73
2019-02-23T08:07:33.134Z,12.63
2019-02-23T08:10:01.979Z,9.63
2019-02-23T08:12:30.817Z,10.87
2019-02-23T08:14:59.657Z,9.70
2019-02-23T08:17:28.500Z,11.80
2019-02-23T08:19:57.340Z,13.03
2019-02-23T08:22:36.899Z,19.07
2019-02-23T08:24:59.196Z,12.47
2019-02-23T08:27:27.192Z,22.73
2019-02-23T08:29:56.054Z,8.93
2019-02-23T08:32:24.809Z,13.43
2019-02-23T08:34:53.656Z,8.63
2019-02-23T08:37:22.427Z,14.97
2019-02-23T08:39:51.203Z,12.80
2019-02-23T08:42:20.065Z,21.27
2019-02-23T08:44:48.887Z,19.33
2019-02-23T08:47:17.652Z,19.27
2019-02-23T08:49:46.524Z,10.17
2019-02-23T08:52:15.266Z,12.43
2019-02-23T08:54:44.096Z,6.60
2019-02-23T08:57:12.929Z,11.50
2019-02-23T08:59:41.680Z,9.77
2019-02-23T09:02:10.452Z,10.57
2019-02-23T09:04:39.293Z,8.87
2019-02-23T09:07:08.057Z,12.57
2019-02-23T09:09:36.859Z,10.70
2019-02-23T09:12:05.624Z,15.17
2019-02-23T09:14:34.407Z,28.40
2019-02-23T09:17:03.251Z,15.53
2019-02-23T09:19:32.019Z,53.83
2019-02-23T09:22:00.866Z,13.07
2019-02-23T09:24:29.974Z,11.97
2019-02-23T09:26:58.735Z,10.43
2019-02-23T09:29:27.505Z,12.33
2019-02-23T09:31:56.298Z,11.73
2019-02-23T09:34:25.061Z,12.97
2019-02-23T09:36:53.883Z,16.83
2019-02-23T09:39:22.656Z,15.97
2019-02-23T09:41:51.430Z,9.90
2019-02-23T09:44:20.269Z,11.03
2019-02-23T09:46:49.098Z,11.60
2019-02-23T09:49:17.875Z,9.33
2019-02-23T09:51:46.656Z,11.00
2019-02-23T09:54:15.494Z,9.60
2019-02-23T09:56:44.350Z,11.70
2019-02-23T09:59:13.245Z,19.47
2019-02-23T10:01:42.022Z,13.13
2019-02-23T10:04:10.859Z,13.27
2019-02-23T10:06:39.704Z,12.70
2019-02-23T10:09:08.608Z,14.33
2019-02-23T10:11:37.452Z,9.80
2019-02-23T10:14:07.481Z,11.00
2019-02-23T10:16:36.424Z,13.47
2019-02-23T10:19:05.277Z,14.00
2019-02-23T10:21:34.042Z,20.87
2019-02-23T10:24:02.890Z,13.00
2019-02-23T10:26:31.708Z,10.60
2019-02-23T10:29:00.544Z,9.43
2019-02-23T10:31:29.313Z,10.40
2019-02-23T10:33:58.159Z,11.27
2019-02-23T10:36:26.930Z,13.83
2019-02-23T10:38:55.720Z,11.10
2019-02-23T10:41:24.650Z,9.87
2019-02-23T10:43:53.429Z,9.27
2019-02-23T10:46:22.189Z,11.87
2019-02-23T10:48:50.967Z,8.47
2019-02-23T10:51:19.834Z,12.90
2019-02-23T10:53:48.620Z,13.83
2019-02-23T10:56:17.406Z,13.00
2019-02-23T10:58:46.167Z,11.87
2019-02-23T11:01:14.941Z,11.67
2019-02-23T11:03:43.703Z,13.20
2019-02-23T11:06:12.866Z,14.80
2019-02-23T11:08:42.230Z,13.22
2019-02-23T11:11:11.649Z,13.70
2019-02-23T11:13:41.019Z,11.18
2019-02-23T11:16:10.442Z,11.15
2019-02-23T11:18:39.877Z,9.05
2019-02-23T11:21:09.515Z,9.78
2019-02-23T11:23:44.317Z,15.15
2019-02-23T11:26:10.034Z,12.45
2019-02-23T11:28:39.441Z,17.48
2019-02-23T11:31:08.848Z,16.05
2019-02-23T11:33:38.222Z,15.93
2019-02-23T11:36:07.659Z,21.45
2019-02-23T11:38:37.012Z,13.85
2019-02-23T11:41:06.366Z,16.95
2019-02-23T11:43:35.799Z,12.45
2019-02-23T11:46:05.263Z,14.35
2019-02-23T11:48:34.055Z,10.10
2019-02-23T11:51:02.869Z,12.13
2019-02-23T11:53:32.319Z,10.45
2019-02-23T11:56:01.392Z,10.50
2019-02-23T11:58:30.763Z,8.23
2019-02-23T12:00:59.579Z,10.37
2019-02-23T12:03:28.423Z,9.57
2019-02-23T12:05:57.205Z,16.10
2019-02-23T12:08:25.985Z,11.23
2019-02-23T12:10:54.829Z,10.67
2019-02-23T12:13:23.659Z,11.87
2019-02-23T12:15:52.507Z,13.57
2019-02-23T12:18:21.349Z,17.47
2019-02-23T12:20:50.199Z,20.03
2019-02-23T12:23:18.981Z,16.93
2019-02-23T12:25:47.743Z,20.17
2019-02-23T12:28:16.579Z,14.60
2019-02-23T12:30:45.347Z,15.57
2019-02-23T12:33:14.129Z,30.07
2019-02-23T12:35:42.986Z,27.07
2019-02-23T12:38:11.846Z,31.77
2019-02-23T12:40:40.690Z,19.93
2019-02-23T12:43:09.507Z,15.30
2019-02-23T12:45:38.287Z,15.33
2019-02-23T12:48:07.098Z,11.93
2019-02-23T12:50:35.892Z,8.87
2019-02-23T12:53:04.707Z,9.43
2019-02-23T12:55:33.478Z,9.73
2019-02-23T12:58:02.308Z,15.87
2019-02-23T13:00:31.161Z,12.57
2019-02-23T13:03:00.070Z,10.83
2019-02-23T13:05:28.845Z,10.87
2019-02-23T13:07:57.691Z,12.20
2019-02-23T13:10:26.535Z,13.10
2019-02-23T13:13:01.180Z,14.47
2019-02-23T13:15:35.411Z,10.60
2019-02-23T13:18:29.688Z,15.67
2019-02-23T13:21:34.125Z,18.00
2019-02-23T13:24:34.562Z,11.30
2019-02-23T13:27:09.002Z,13.43
2019-02-23T13:29:52.391Z,11.37
2019-02-23T13:32:24.159Z,9.27
2019-02-23T13:35:15.465Z,10.33
2019-02-23T13:37:52.947Z,18.33
2019-02-23T13:40:39.462Z,54.60
2019-02-23T13:43:17.019Z,21.27
2019-02-23T13:45:59.558Z,16.38
2019-02-23T13:48:48.955Z,14.00
2019-02-23T13:51:42.925Z,19.57
2019-02-23T13:54:41.738Z,8.90
2019-02-23T13:57:29.722Z,13.03
2019-02-23T14:00:04.016Z,17.37
2019-02-23T14:02:54.763Z,17.37
2019-02-23T14:05:45.917Z,14.67
2019-02-23T14:08:26.179Z,26.33
2019-02-23T14:11:06.742Z,21.47
2019-02-23T14:13:50.118Z,31.80
2019-02-23T14:16:30.650Z,34.63
2019-02-23T14:19:20.252Z,30.03
2019-02-23T14:21:57.687Z,16.37
2019-02-23T14:24:50.352Z,21.10
2019-02-23T14:27:24.893Z,20.40
2019-02-23T14:29:59.162Z,18.73
2019-02-23T14:32:39.440Z,17.10
2019-02-23T14:35:35.035Z,17.53
2019-02-23T14:38:21.565Z,13.90
2019-02-23T14:41:08.348Z,12.63
2019-02-23T14:43:56.019Z,12.63
2019-02-23T14:46:36.667Z,15.60
2019-02-23T14:49:23.320Z,18.77
2019-02-23T14:52:14.497Z,25.03
2019-02-23T14:54:46.295Z,16.67
2019-02-23T14:57:24.027Z,22.80
2019-02-23T15:00:04.536Z,13.63
2019-02-23T15:03:09.150Z,12.40
2019-02-23T15:05:40.908Z,13.13
2019-02-23T15:08:18.402Z,12.13
2019-02-23T15:10:55.624Z,13.33
2019-02-23T15:13:49.873Z,14.33
2019-02-23T15:16:36.570Z,13.53
2019-02-23T15:19:26.211Z,13.13
2019-02-23T15:22:14.021Z,11.47
2019-02-23T15:25:12.728Z,12.90
2019-02-23T15:27:37.005Z,14.53
2019-02-23T15:30:29.847Z,17.03
2019-02-23T15:33:01.724Z,13.07
2019-02-23T15:35:33.456Z,21.40
2019-02-23T15:38:05.127Z,17.23
2019-02-23T15:40:42.888Z,21.17
2019-02-23T15:43:35.362Z,30.60
2019-02-23T15:46:07.083Z,34.47
2019-02-23T15:48:44.586Z,35.80
2019-02-23T15:51:13.372Z,34.10
2019-02-23T15:53:42.230Z,20.13
2019-02-23T15:56:11.040Z,20.77
2019-02-23T15:58:39.813Z,27.70
2019-02-23T16:01:08.590Z,27.80
2019-02-23T16:03:37.439Z,28.37
2019-02-23T16:06:06.285Z,33.43
2019-02-23T16:08:35.071Z,26.63
2019-02-23T16:11:03.930Z,28.20
2019-02-23T16:13:32.708Z,24.83
2019-02-23T16:16:01.550Z,23.50
2019-02-23T16:18:30.486Z,26.07
2019-02-23T16:20:59.260Z,25.30
2019-02-23T16:23:35.439Z,18.63
2019-02-23T16:25:58.584Z,20.67
2019-02-23T16:28:27.461Z,35.10
2019-02-23T16:30:57.813Z,61.97
2019-02-23T16:33:26.673Z,44.87
2019-02-23T16:35:55.441Z,79.80
2019-02-23T16:38:24.284Z,28.17
2019-02-23T16:40:53.134Z,16.97
2019-02-23T16:43:21.909Z,17.77
2019-02-23T16:45:50.670Z,15.07
2019-02-23T16:48:19.527Z,17.63
2019-02-23T16:50:48.302Z,20.30
2019-02-23T16:53:17.081Z,21.73
2019-02-23T16:55:50.889Z,30.43
2019-02-23T16:58:16.430Z,30.43
2019-02-23T17:00:45.212Z,13.53
2019-02-23T17:03:13.987Z,15.67
2019-02-23T17:05:42.898Z,36.20
2019-02-23T17:08:11.682Z,22.67
2019-02-23T17:10:40.521Z,29.47
2019-02-23T17:13:09.319Z,25.80
2019-02-23T17:15:38.092Z,25.87
2019-02-23T17:18:06.951Z,20.57
2019-02-23T17:20:35.800Z,22.30
2019-02-23T17:23:04.659Z,22.83
2019-02-23T17:25:33.515Z,16.27
2019-02-23T17:28:02.288Z,15.60
2019-02-23T17:30:31.087Z,22.97
2019-02-23T17:32:59.914Z,18.50
2019-02-23T17:35:28.769Z,15.57
2019-02-23T17:37:57.622Z,23.60
2019-02-23T17:40:26.479Z,27.17
2019-02-23T17:42:55.249Z,17.57
2019-02-23T17:45:24.105Z,25.47
2019-02-23T17:47:54.459Z,12.60
2019-02-23T17:50:23.249Z,26.27
2019-02-23T17:52:52.101Z,21.40
2019-02-23T17:55:20.899Z,23.03
2019-02-23T17:57:49.776Z,22.07
2019-02-23T18:00:20.237Z,25.53
2019-02-23T18:02:49.026Z,20.37
2019-02-23T18:05:17.823Z,18.73
2019-02-23T18:07:46.671Z,21.07
2019-02-23T18:10:15.476Z,20.27
2019-02-23T18:12:44.324Z,21.27
2019-02-23T18:15:13.399Z,26.57
2019-02-23T18:17:42.232Z,24.83
2019-02-23T18:20:12.826Z,28.57
2019-02-23T18:22:41.682Z,29.57
2019-02-23T18:25:23.720Z,30.94
2019-02-23T18:27:52.490Z,28.10
2019-02-23T18:30:21.457Z,28.70
2019-02-23T18:32:50.238Z,24.23
2019-02-23T18:35:19.096Z,29.63
2019-02-23T18:37:47.980Z,29.77
2019-02-23T18:40:16.834Z,27.70
2019-02-23T18:42:45.735Z,25.33
2019-02-23T18:45:14.581Z,23.80
2019-02-23T18:47:43.645Z,21.97
2019-02-23T18:50:12.568Z,23.67
2019-02-23T18:52:42.786Z,21.70
2019-02-23T18:55:11.656Z,26.13
2019-02-23T18:57:40.459Z,20.57
2019-02-23T19:00:12.914Z,29.47
2019-02-23T19:02:41.696Z,24.53
2019-02-23T19:05:12.407Z,28.10
2019-02-23T19:07:43.054Z,32.00
2019-02-23T19:10:13.976Z,35.33
2019-02-23T19:12:42.912Z,36.57
2019-02-23T19:15:13.282Z,26.83
2019-02-23T19:17:42.081Z,28.87
2019-02-23T19:20:13.498Z,28.07
2019-02-23T19:22:42.355Z,44.80
2019-02-23T19:25:11.816Z,40.40
2019-02-23T19:27:40.699Z,40.33
2019-02-23T19:30:14.139Z,49.60
2019-02-23T19:32:43.048Z,51.40
2019-02-23T19:35:11.937Z,37.30
2019-02-23T19:37:40.705Z,36.77
2019-02-23T19:40:10.254Z,29.70
2019-02-23T19:42:39.050Z,37.10
2019-02-23T19:45:10.127Z,34.50
2019-02-23T19:47:41.172Z,57.67
2019-02-23T19:50:15.530Z,50.27
2019-02-23T19:52:44.380Z,47.27
2019-02-23T19:55:15.550Z,30.20
2019-02-23T19:57:44.388Z,29.83
2019-02-23T20:00:13.250Z,37.73
2019-02-23T20:02:42.024Z,29.80
2019-02-23T20:05:11.468Z,27.23
2019-02-23T20:07:40.247Z,18.20
2019-02-23T20:10:10.223Z,24.63
2019-02-23T20:12:39.006Z,35.87
2019-02-23T20:15:09.871Z,34.50
2019-02-23T20:17:38.735Z,34.13
2019-02-23T20:20:08.470Z,33.67
2019-02-23T20:22:37.264Z,31.33
2019-02-23T20:25:08.209Z,28.07
2019-02-23T20:27:37.002Z,24.73
2019-02-23T20:30:10.997Z,27.43
2019-02-23T20:32:39.796Z,26.73
2019-02-23T20:35:09.175Z,27.97
2019-02-23T20:37:37.975Z,35.00
2019-02-23T20:40:08.610Z,32.80
2019-02-23T20:42:37.392Z,36.40
2019-02-23T20:45:08.095Z,29.43
2019-02-23T20:47:36.945Z,25.57
2019-02-23T20:50:08.393Z,23.07
2019-02-23T20:52:37.187Z,27.00
2019-02-23T20:55:07.866Z,26.90
2019-02-23T20:57:36.660Z,28.23
2019-02-23T21:00:07.729Z,19.97
2019-02-23T21:02:36.536Z,20.07
2019-02-23T21:05:10.393Z,27.63
2019-02-23T21:07:39.256Z,27.00
2019-02-23T21:10:09.846Z,28.47
2019-02-23T21:12:38.702Z,31.60
2019-02-23T21:15:09.658Z,22.90
2019-02-23T21:17:38.438Z,29.50
2019-02-23T21:20:11.335Z,26.83
2019-02-23T21:22:40.178Z,22.13
2019-02-23T21:25:09.659Z,21.47
2019-02-23T21:27:38.413Z,23.73
2019-02-23T21:30:09.157Z,26.27
2019-02-23T21:32:37.929Z,39.17
2019-02-23T21:35:08.405Z,36.03
2019-02-23T21:37:37.188Z,23.07
2019-02-23T21:40:09.672Z,30.43
2019-02-23T21:42:38.527Z,26.20
2019-02-23T21:45:09.090Z,21.13
2019-02-23T21:47:37.931Z,20.80
2019-02-23T21:50:10.855Z,26.87
2019-02-23T21:52:39.704Z,27.27
2019-02-23T21:55:08.577Z,23.73
2019-02-23T21:57:37.383Z,25.03
2019-02-23T22:00:08.228Z,35.53
2019-02-23T22:02:37.112Z,22.10
2019-02-23T22:05:12.343Z,30.00
2019-02-23T22:07:36.662Z,41.23
2019-02-23T22:10:08.328Z,22.03
2019-02-23T22:12:37.283Z,26.57
2019-02-23T22:15:07.225Z,21.27
2019-02-23T22:17:36.031Z,15.67
2019-02-23T22:20:06.012Z,16.13
2019-02-23T22:22:34.865Z,18.10
2019-02-23T22:25:03.685Z,18.33
2019-02-23T22:27:32.457Z,19.73
2019-02-23T22:30:01.232Z,11.20
2019-02-23T22:32:30.004Z,15.70
2019-02-23T22:34:58.802Z,12.63
2019-02-23T22:37:27.565Z,15.03
2019-02-23T22:39:56.413Z,18.73
2019-02-23T22:42:25.253Z,17.40
2019-02-23T22:44:54.031Z,14.10
2019-02-23T22:47:22.793Z,12.23
2019-02-23T22:49:51.561Z,10.73
2019-02-23T22:52:20.344Z,10.60
2019-02-23T22:54:49.124Z,10.60
2019-02-23T22:57:17.899Z,15.23
2019-02-23T22:59:46.677Z,10.87
2019-02-23T23:02:15.619Z,12.77
2019-02-23T23:04:44.399Z,15.00
2019-02-23T23:07:13.173Z,18.30
2019-02-23T23:09:41.964Z,17.03
2019-02-23T23:12:10.906Z,12.87
2019-02-23T23:14:39.746Z,15.53
2019-02-23T23:17:08.516Z,15.27
2019-02-23T23:19:37.345Z,19.33
2019-02-23T23:22:06.110Z,18.50
2019-02-23T23:24:34.955Z,22.07
2019-02-23T23:27:03.784Z,21.83
2019-02-23T23:29:32.570Z,24.17
2019-02-23T23:32:01.364Z,24.87
2019-02-23T23:34:30.215Z,26.47
2019-02-23T23:36:58.999Z,30.30
2019-02-23T23:39:27.781Z,35.20
2019-02-23T23:41:56.551Z,32.40
2019-02-23T23:44:25.396Z,36.37
2019-02-23T23:46:54.218Z,35.80
2019-02-23T23:49:23.028Z,27.03
2019-02-23T23:51:51.872Z,24.83
2019-02-23T23:54:20.637Z,26.00
2019-02-23T23:56:49.492Z,28.90
2019-02-23T23:59:18.259Z,22.40
